sensor_id;sensor_type;location;lat;lon;timestamp;P1;durP1;ratioP1;P2;durP2;ratioP2
7957;SDS011;4024;52.172;5.378;2023-03-01T00:01:39;12.17;;;9.53;;
7957;SDS011;4024;52.172;5.378;2023-03-01T00:04:05;12.63;;;9.83;;
7957;SDS011;4024;52.172;5.378;2023-03-01T00:06:31;14.00;;;10.27;;
7957;SDS011;4024;52.172;5.378;2023-03-01T00:08:56;13.50;;;9.90;;
7957;SDS011;4024;52.172;5.378;2023-03-01T00:11:23;12.17;;;9.80;;
7957;SDS011;4024;52.172;5.378;2023-03-01T00:13:51;15.23;;;10.50;;
7957;SDS011;4024;52.172;5.378;2023-03-01T00:16:19;13.57;;;9.83;;
7957;SDS011;4024;52.172;5.378;2023-03-01T00:18:47;11.13;;;9.40;;
7957;SDS011;4024;52.172;5.378;2023-03-01T00:21:13;12.93;;;10.17;;
7957;SDS011;4024;52.172;5.378;2023-03-01T00:23:39;13.73;;;10.90;;
7957;SDS011;4024;52.172;5.378;2023-03-01T00:26:06;17.90;;;12.00;;
7957;SDS011;4024;52.172;5.378;2023-03-01T00:28:33;16.13;;;11.67;;
7957;SDS011;4024;52.172;5.378;2023-03-01T00:31:06;17.50;;;12.77;;
7957;SDS011;4024;52.172;5.378;2023-03-01T00:33:34;20.67;;;13.03;;
7957;SDS011;4024;52.172;5.378;2023-03-01T00:36:00;17.60;;;12.33;;
7957;SDS011;4024;52.172;5.378;2023-03-01T00:38:27;22.63;;;12.87;;
7957;SDS011;4024;52.172;5.378;2023-03-01T00:40:53;19.03;;;13.13;;
7957;SDS011;4024;52.172;5.378;2023-03-01T00:43:19;17.23;;;12.00;;
7957;SDS011;4024;52.172;5.378;2023-03-01T00:45:44;17.07;;;12.20;;
7957;SDS011;4024;52.172;5.378;2023-03-01T00:48:10;14.13;;;11.77;;
7957;SDS011;4024;52.172;5.378;2023-03-01T00:50:36;17.80;;;11.30;;
7957;SDS011;4024;52.172;5.378;2023-03-01T00:53:01;16.83;;;11.20;;
7957;SDS011;4024;52.172;5.378;2023-03-01T00:55:27;18.37;;;11.67;;
7957;SDS011;4024;52.172;5.378;2023-03-01T00:57:52;15.70;;;11.17;;
7957;SDS011;4024;52.172;5.378;2023-03-01T01:00:19;16.13;;;11.57;;
7957;SDS011;4024;52.172;5.378;2023-03-01T01:02:45;13.60;;;10.60;;
7957;SDS011;4024;52.172;5.378;2023-03-01T01:05:11;15.73;;;10.80;;
7957;SDS011;4024;52.172;5.378;2023-03-01T01:07:37;15.33;;;10.57;;
7957;SDS011;4024;52.172;5.378;2023-03-01T01:10:03;14.07;;;10.97;;
7957;SDS011;4024;52.172;5.378;2023-03-01T01:12:29;14.07;;;10.27;;
7957;SDS011;4024;52.172;5.378;2023-03-01T01:14:55;13.50;;;10.50;;
7957;SDS011;4024;52.172;5.378;2023-03-01T01:17:21;13.90;;;10.67;;
7957;SDS011;4024;52.172;5.378;2023-03-01T01:19:46;12.37;;;10.40;;
7957;SDS011;4024;52.172;5.378;2023-03-01T01:22:12;19.47;;;10.97;;
7957;SDS011;4024;52.172;5.378;2023-03-01T01:24:38;13.30;;;10.70;;
7957;SDS011;4024;52.172;5.378;2023-03-01T01:27:03;13.10;;;10.30;;
7957;SDS011;4024;52.172;5.378;2023-03-01T01:29:29;15.07;;;10.87;;
7957;SDS011;4024;52.172;5.378;2023-03-01T01:31:56;15.00;;;10.60;;
7957;SDS011;4024;52.172;5.378;2023-03-01T01:34:22;17.40;;;11.00;;
7957;SDS011;4024;52.172;5.378;2023-03-01T01:36:48;13.97;;;10.83;;
7957;SDS011;4024;52.172;5.378;2023-03-01T01:39:15;13.23;;;10.77;;
7957;SDS011;4024;52.172;5.378;2023-03-01T01:41:41;13.33;;;9.87;;
7957;SDS011;4024;52.172;5.378;2023-03-01T01:46:49;12.13;;;10.13;;
7957;SDS011;4024;52.172;5.378;2023-03-01T01:49:29;14.70;;;11.17;;
7957;SDS011;4024;52.172;5.378;2023-03-01T01:52:10;12.97;;;10.37;;
7957;SDS011;4024;52.172;5.378;2023-03-01T01:57:18;16.23;;;10.33;;
7957;SDS011;4024;52.172;5.378;2023-03-01T01:59:48;14.17;;;11.17;;
7957;SDS011;4024;52.172;5.378;2023-03-01T02:02:18;13.10;;;11.13;;
7957;SDS011;4024;52.172;5.378;2023-03-01T02:04:44;14.67;;;10.97;;
7957;SDS011;4024;52.172;5.378;2023-03-01T02:07:16;16.80;;;11.73;;
7957;SDS011;4024;52.172;5.378;2023-03-01T02:09:46;12.73;;;10.63;;
7957;SDS011;4024;52.172;5.378;2023-03-01T02:12:17;14.20;;;12.13;;
7957;SDS011;4024;52.172;5.378;2023-03-01T02:14:44;14.03;;;11.50;;
7957;SDS011;4024;52.172;5.378;2023-03-01T02:17:11;14.03;;;11.60;;
7957;SDS011;4024;52.172;5.378;2023-03-01T02:22:28;15.33;;;11.70;;
7957;SDS011;4024;52.172;5.378;2023-03-01T02:25:02;17.40;;;13.33;;
7957;SDS011;4024;52.172;5.378;2023-03-01T02:30:42;15.33;;;12.10;;
7957;SDS011;4024;52.172;5.378;2023-03-01T02:33:28;14.43;;;12.00;;
7957;SDS011;4024;52.172;5.378;2023-03-01T02:35:57;13.47;;;11.67;;
7957;SDS011;4024;52.172;5.378;2023-03-01T02:38:25;16.27;;;12.63;;
7957;SDS011;4024;52.172;5.378;2023-03-01T02:40:51;17.50;;;12.97;;
7957;SDS011;4024;52.172;5.378;2023-03-01T02:43:19;21.77;;;13.47;;
7957;SDS011;4024;52.172;5.378;2023-03-01T02:45:50;16.20;;;12.87;;
7957;SDS011;4024;52.172;5.378;2023-03-01T02:48:17;16.83;;;13.23;;
7957;SDS011;4024;52.172;5.378;2023-03-01T02:50:55;15.63;;;12.30;;
7957;SDS011;4024;52.172;5.378;2023-03-01T02:54:24;14.50;;;11.83;;
7957;SDS011;4024;52.172;5.378;2023-03-01T02:56:56;16.57;;;12.70;;
7957;SDS011;4024;52.172;5.378;2023-03-01T02:59:24;15.67;;;12.27;;
7957;SDS011;4024;52.172;5.378;2023-03-01T03:01:54;17.00;;;12.90;;
7957;SDS011;4024;52.172;5.378;2023-03-01T03:04:20;14.97;;;12.20;;
7957;SDS011;4024;52.172;5.378;2023-03-01T03:06:48;16.97;;;12.93;;
7957;SDS011;4024;52.172;5.378;2023-03-01T03:09:15;15.13;;;11.53;;
7957;SDS011;4024;52.172;5.378;2023-03-01T03:11:42;18.53;;;13.20;;
7957;SDS011;4024;52.172;5.378;2023-03-01T03:14:12;16.70;;;12.33;;
7957;SDS011;4024;52.172;5.378;2023-03-01T03:16:40;19.37;;;13.27;;
7957;SDS011;4024;52.172;5.378;2023-03-01T03:19:14;15.67;;;11.83;;
7957;SDS011;4024;52.172;5.378;2023-03-01T03:21:41;17.93;;;12.90;;
7957;SDS011;4024;52.172;5.378;2023-03-01T03:24:07;18.63;;;13.47;;
7957;SDS011;4024;52.172;5.378;2023-03-01T03:26:34;15.83;;;13.00;;
7957;SDS011;4024;52.172;5.378;2023-03-01T03:28:59;16.73;;;12.57;;
7957;SDS011;4024;52.172;5.378;2023-03-01T03:31:26;18.20;;;13.47;;
7957;SDS011;4024;52.172;5.378;2023-03-01T03:33:51;19.30;;;13.03;;
7957;SDS011;4024;52.172;5.378;2023-03-01T03:36:22;17.93;;;12.77;;
7957;SDS011;4024;52.172;5.378;2023-03-01T03:38:49;16.57;;;13.07;;
7957;SDS011;4024;52.172;5.378;2023-03-01T03:41:15;16.60;;;13.53;;
7957;SDS011;4024;52.172;5.378;2023-03-01T03:43:41;15.73;;;12.30;;
7957;SDS011;4024;52.172;5.378;2023-03-01T03:46:08;15.43;;;12.10;;
7957;SDS011;4024;52.172;5.378;2023-03-01T03:48:42;19.97;;;13.17;;
7957;SDS011;4024;52.172;5.378;2023-03-01T03:51:12;16.63;;;11.87;;
7957;SDS011;4024;52.172;5.378;2023-03-01T03:53:40;16.23;;;12.40;;
7957;SDS011;4024;52.172;5.378;2023-03-01T03:56:06;15.30;;;12.20;;
7957;SDS011;4024;52.172;5.378;2023-03-01T03:58:32;16.50;;;12.43;;
7957;SDS011;4024;52.172;5.378;2023-03-01T04:00:58;15.00;;;12.27;;
7957;SDS011;4024;52.172;5.378;2023-03-01T04:03:26;18.07;;;12.77;;
7957;SDS011;4024;52.172;5.378;2023-03-01T04:05:53;15.10;;;11.60;;
7957;SDS011;4024;52.172;5.378;2023-03-01T04:08:19;17.13;;;12.17;;
7957;SDS011;4024;52.172;5.378;2023-03-01T04:10:47;13.27;;;11.50;;
7957;SDS011;4024;52.172;5.378;2023-03-01T04:13:18;14.97;;;12.13;;
7957;SDS011;4024;52.172;5.378;2023-03-01T04:15:48;15.00;;;11.73;;
7957;SDS011;4024;52.172;5.378;2023-03-01T04:18:18;16.87;;;12.37;;
7957;SDS011;4024;52.172;5.378;2023-03-01T04:20:45;18.33;;;12.87;;
7957;SDS011;4024;52.172;5.378;2023-03-01T04:23:13;17.03;;;12.50;;
7957;SDS011;4024;52.172;5.378;2023-03-01T04:25:51;17.07;;;12.20;;
7957;SDS011;4024;52.172;5.378;2023-03-01T04:28:25;18.20;;;12.80;;
7957;SDS011;4024;52.172;5.378;2023-03-01T04:30:54;18.97;;;13.50;;
7957;SDS011;4024;52.172;5.378;2023-03-01T04:33:21;16.23;;;12.57;;
7957;SDS011;4024;52.172;5.378;2023-03-01T04:35:46;18.13;;;14.23;;
7957;SDS011;4024;52.172;5.378;2023-03-01T04:38:16;14.97;;;12.17;;
7957;SDS011;4024;52.172;5.378;2023-03-01T04:40:42;17.37;;;13.40;;
7957;SDS011;4024;52.172;5.378;2023-03-01T04:43:08;18.00;;;13.43;;
7957;SDS011;4024;52.172;5.378;2023-03-01T04:45:35;15.93;;;11.97;;
7957;SDS011;4024;52.172;5.378;2023-03-01T04:48:01;18.10;;;12.53;;
7957;SDS011;4024;52.172;5.378;2023-03-01T04:50:28;16.17;;;12.20;;
7957;SDS011;4024;52.172;5.378;2023-03-01T04:52:53;14.93;;;12.17;;
7957;SDS011;4024;52.172;5.378;2023-03-01T04:55:23;20.40;;;13.73;;
7957;SDS011;4024;52.172;5.378;2023-03-01T04:57:52;15.13;;;13.00;;
7957;SDS011;4024;52.172;5.378;2023-03-01T05:00:18;18.53;;;13.20;;
7957;SDS011;4024;52.172;5.378;2023-03-01T05:02:59;13.90;;;11.83;;
7957;SDS011;4024;52.172;5.378;2023-03-01T05:05:30;16.17;;;13.50;;
7957;SDS011;4024;52.172;5.378;2023-03-01T05:07:58;17.17;;;14.03;;
7957;SDS011;4024;52.172;5.378;2023-03-01T05:10:26;18.50;;;13.53;;
7957;SDS011;4024;52.172;5.378;2023-03-01T05:12:54;18.97;;;13.47;;
7957;SDS011;4024;52.172;5.378;2023-03-01T05:15:22;19.97;;;13.00;;
7957;SDS011;4024;52.172;5.378;2023-03-01T05:17:50;19.43;;;14.27;;
7957;SDS011;4024;52.172;5.378;2023-03-01T05:20:16;18.47;;;14.40;;
7957;SDS011;4024;52.172;5.378;2023-03-01T05:22:42;16.50;;;12.57;;
7957;SDS011;4024;52.172;5.378;2023-03-01T05:25:08;16.50;;;12.13;;
7957;SDS011;4024;52.172;5.378;2023-03-01T05:27:34;17.60;;;13.30;;
7957;SDS011;4024;52.172;5.378;2023-03-01T05:29:59;19.93;;;14.13;;
7957;SDS011;4024;52.172;5.378;2023-03-01T05:32:38;23.67;;;16.53;;
7957;SDS011;4024;52.172;5.378;2023-03-01T05:35:05;23.10;;;17.57;;
7957;SDS011;4024;52.172;5.378;2023-03-01T05:37:30;22.67;;;17.30;;
7957;SDS011;4024;52.172;5.378;2023-03-01T05:39:56;19.63;;;15.10;;
7957;SDS011;4024;52.172;5.378;2023-03-01T05:42:22;23.53;;;16.83;;
7957;SDS011;4024;52.172;5.378;2023-03-01T05:44:47;18.40;;;15.07;;
7957;SDS011;4024;52.172;5.378;2023-03-01T05:47:13;20.67;;;15.33;;
7957;SDS011;4024;52.172;5.378;2023-03-01T05:49:39;22.50;;;15.90;;
7957;SDS011;4024;52.172;5.378;2023-03-01T05:52:04;22.43;;;16.60;;
7957;SDS011;4024;52.172;5.378;2023-03-01T05:54:30;20.70;;;15.50;;
7957;SDS011;4024;52.172;5.378;2023-03-01T05:56:55;21.57;;;16.00;;
7957;SDS011;4024;52.172;5.378;2023-03-01T05:59:21;21.33;;;14.87;;
7957;SDS011;4024;52.172;5.378;2023-03-01T06:01:47;19.67;;;14.03;;
7957;SDS011;4024;52.172;5.378;2023-03-01T06:04:12;21.20;;;15.80;;
7957;SDS011;4024;52.172;5.378;2023-03-01T06:06:38;20.10;;;15.83;;
7957;SDS011;4024;52.172;5.378;2023-03-01T06:09:04;21.17;;;14.70;;
7957;SDS011;4024;52.172;5.378;2023-03-01T06:11:33;19.73;;;14.80;;
7957;SDS011;4024;52.172;5.378;2023-03-01T06:13:59;21.23;;;15.40;;
7957;SDS011;4024;52.172;5.378;2023-03-01T06:16:24;20.40;;;14.30;;
7957;SDS011;4024;52.172;5.378;2023-03-01T06:18:50;22.70;;;14.63;;
7957;SDS011;4024;52.172;5.378;2023-03-01T06:21:16;21.57;;;14.67;;
7957;SDS011;4024;52.172;5.378;2023-03-01T06:23:41;17.93;;;14.60;;
7957;SDS011;4024;52.172;5.378;2023-03-01T06:26:07;18.47;;;13.97;;
7957;SDS011;4024;52.172;5.378;2023-03-01T06:28:34;22.20;;;15.30;;
7957;SDS011;4024;52.172;5.378;2023-03-01T06:31:00;21.40;;;15.50;;
7957;SDS011;4024;52.172;5.378;2023-03-01T06:33:26;19.27;;;14.57;;
7957;SDS011;4024;52.172;5.378;2023-03-01T06:35:53;25.03;;;15.77;;
7957;SDS011;4024;52.172;5.378;2023-03-01T06:38:21;18.00;;;14.37;;
7957;SDS011;4024;52.172;5.378;2023-03-01T06:40:54;22.23;;;14.70;;
7957;SDS011;4024;52.172;5.378;2023-03-01T06:43:21;20.90;;;15.17;;
7957;SDS011;4024;52.172;5.378;2023-03-01T06:45:48;22.10;;;15.17;;
7957;SDS011;4024;52.172;5.378;2023-03-01T06:48:14;19.30;;;14.37;;
7957;SDS011;4024;52.172;5.378;2023-03-01T06:50:39;20.33;;;13.93;;
7957;SDS011;4024;52.172;5.378;2023-03-01T06:53:05;22.93;;;15.57;;
7957;SDS011;4024;52.172;5.378;2023-03-01T06:55:30;21.13;;;15.37;;
7957;SDS011;4024;52.172;5.378;2023-03-01T06:57:57;24.00;;;16.37;;
7957;SDS011;4024;52.172;5.378;2023-03-01T07:00:24;26.43;;;17.27;;
7957;SDS011;4024;52.172;5.378;2023-03-01T07:02:50;25.63;;;16.57;;
7957;SDS011;4024;52.172;5.378;2023-03-01T07:05:16;27.67;;;17.20;;
7957;SDS011;4024;52.172;5.378;2023-03-01T07:07:42;27.27;;;16.87;;
7957;SDS011;4024;52.172;5.378;2023-03-01T07:10:07;25.60;;;16.03;;
7957;SDS011;4024;52.172;5.378;2023-03-01T07:12:36;29.43;;;18.27;;
7957;SDS011;4024;52.172;5.378;2023-03-01T07:15:02;25.33;;;17.57;;
7957;SDS011;4024;52.172;5.378;2023-03-01T07:17:28;24.87;;;16.57;;
7957;SDS011;4024;52.172;5.378;2023-03-01T07:19:54;25.87;;;17.73;;
7957;SDS011;4024;52.172;5.378;2023-03-01T07:22:19;24.90;;;17.40;;
7957;SDS011;4024;52.172;5.378;2023-03-01T07:24:45;27.77;;;18.57;;
7957;SDS011;4024;52.172;5.378;2023-03-01T07:27:11;26.43;;;18.53;;
7957;SDS011;4024;52.172;5.378;2023-03-01T07:29:36;27.63;;;18.73;;
7957;SDS011;4024;52.172;5.378;2023-03-01T07:32:02;30.40;;;21.33;;
7957;SDS011;4024;52.172;5.378;2023-03-01T07:34:28;27.27;;;19.63;;
7957;SDS011;4024;52.172;5.378;2023-03-01T07:36:54;25.87;;;17.50;;
7957;SDS011;4024;52.172;5.378;2023-03-01T07:39:20;26.67;;;19.50;;
7957;SDS011;4024;52.172;5.378;2023-03-01T07:41:47;24.57;;;17.93;;
7957;SDS011;4024;52.172;5.378;2023-03-01T07:44:13;26.23;;;18.37;;
7957;SDS011;4024;52.172;5.378;2023-03-01T07:46:40;27.17;;;20.00;;
7957;SDS011;4024;52.172;5.378;2023-03-01T07:49:06;29.00;;;17.83;;
7957;SDS011;4024;52.172;5.378;2023-03-01T07:51:31;22.83;;;16.87;;
7957;SDS011;4024;52.172;5.378;2023-03-01T07:53:57;26.30;;;19.07;;
7957;SDS011;4024;52.172;5.378;2023-03-01T07:56:22;26.53;;;18.73;;
7957;SDS011;4024;52.172;5.378;2023-03-01T07:58:48;25.63;;;18.83;;
7957;SDS011;4024;52.172;5.378;2023-03-01T08:01:15;24.43;;;17.17;;
7957;SDS011;4024;52.172;5.378;2023-03-01T08:03:42;24.57;;;17.10;;
7957;SDS011;4024;52.172;5.378;2023-03-01T08:06:08;22.27;;;16.30;;
7957;SDS011;4024;52.172;5.378;2023-03-01T08:08:35;21.50;;;16.17;;
7957;SDS011;4024;52.172;5.378;2023-03-01T08:11:01;26.93;;;19.10;;
7957;SDS011;4024;52.172;5.378;2023-03-01T08:13:28;23.33;;;17.27;;
7957;SDS011;4024;52.172;5.378;2023-03-01T08:16:00;24.23;;;17.90;;
7957;SDS011;4024;52.172;5.378;2023-03-01T08:18:29;24.67;;;19.13;;
7957;SDS011;4024;52.172;5.378;2023-03-01T08:20:55;27.27;;;18.60;;
7957;SDS011;4024;52.172;5.378;2023-03-01T08:23:21;27.07;;;18.90;;
7957;SDS011;4024;52.172;5.378;2023-03-01T08:25:46;26.40;;;19.43;;
7957;SDS011;4024;52.172;5.378;2023-03-01T08:28:12;29.07;;;19.43;;
7957;SDS011;4024;52.172;5.378;2023-03-01T08:30:37;26.10;;;18.93;;
7957;SDS011;4024;52.172;5.378;2023-03-01T08:33:03;27.27;;;19.37;;
7957;SDS011;4024;52.172;5.378;2023-03-01T08:35:29;23.50;;;17.23;;
7957;SDS011;4024;52.172;5.378;2023-03-01T08:37:54;32.60;;;21.00;;
7957;SDS011;4024;52.172;5.378;2023-03-01T08:40:20;28.70;;;20.13;;
7957;SDS011;4024;52.172;5.378;2023-03-01T08:42:45;27.40;;;19.67;;
7957;SDS011;4024;52.172;5.378;2023-03-01T08:45:12;27.77;;;18.17;;
7957;SDS011;4024;52.172;5.378;2023-03-01T08:47:39;28.23;;;17.87;;
7957;SDS011;4024;52.172;5.378;2023-03-01T08:50:05;27.20;;;19.90;;
7957;SDS011;4024;52.172;5.378;2023-03-01T08:52:32;27.23;;;18.97;;
7957;SDS011;4024;52.172;5.378;2023-03-01T08:54:57;24.87;;;17.63;;
7957;SDS011;4024;52.172;5.378;2023-03-01T08:57:23;22.43;;;16.47;;
7957;SDS011;4024;52.172;5.378;2023-03-01T08:59:49;21.83;;;16.07;;
7957;SDS011;4024;52.172;5.378;2023-03-01T09:02:15;25.83;;;15.63;;
7957;SDS011;4024;52.172;5.378;2023-03-01T09:04:42;20.23;;;11.87;;
7957;SDS011;4024;52.172;5.378;2023-03-01T09:07:08;14.03;;;11.03;;
7957;SDS011;4024;52.172;5.378;2023-03-01T09:09:34;19.03;;;12.10;;
7957;SDS011;4024;52.172;5.378;2023-03-01T09:12:00;13.63;;;11.10;;
7957;SDS011;4024;52.172;5.378;2023-03-01T09:14:28;17.23;;;10.90;;
7957;SDS011;4024;52.172;5.378;2023-03-01T09:16:54;13.70;;;10.07;;
7957;SDS011;4024;52.172;5.378;2023-03-01T09:19:19;15.63;;;9.83;;
7957;SDS011;4024;52.172;5.378;2023-03-01T09:21:45;12.47;;;9.47;;
7957;SDS011;4024;52.172;5.378;2023-03-01T09:24:18;12.03;;;10.10;;
7957;SDS011;4024;52.172;5.378;2023-03-01T09:26:45;13.63;;;9.17;;
7957;SDS011;4024;52.172;5.378;2023-03-01T09:29:12;11.77;;;8.50;;
7957;SDS011;4024;52.172;5.378;2023-03-01T09:31:38;9.77;;;7.43;;
7957;SDS011;4024;52.172;5.378;2023-03-01T09:34:04;8.87;;;7.40;;
7957;SDS011;4024;52.172;5.378;2023-03-01T09:36:30;11.47;;;8.03;;
7957;SDS011;4024;52.172;5.378;2023-03-01T09:38:57;10.50;;;8.20;;
7957;SDS011;4024;52.172;5.378;2023-03-01T09:47:16;10.00;;;7.43;;
7957;SDS011;4024;52.172;5.378;2023-03-01T09:49:57;8.83;;;6.00;;
7957;SDS011;4024;52.172;5.378;2023-03-01T09:52:38;8.83;;;6.27;;
7957;SDS011;4024;52.172;5.378;2023-03-01T09:55:12;7.83;;;6.17;;
7957;SDS011;4024;52.172;5.378;2023-03-01T09:57:47;9.27;;;7.00;;
7957;SDS011;4024;52.172;5.378;2023-03-01T10:00:49;8.17;;;5.83;;
7957;SDS011;4024;52.172;5.378;2023-03-01T10:06:06;6.23;;;4.80;;
7957;SDS011;4024;52.172;5.378;2023-03-01T10:08:38;6.97;;;4.93;;
7957;SDS011;4024;52.172;5.378;2023-03-01T10:11:19;8.50;;;6.37;;
7957;SDS011;4024;52.172;5.378;2023-03-01T10:16:51;9.37;;;6.17;;
7957;SDS011;4024;52.172;5.378;2023-03-01T10:19:34;5.37;;;4.20;;
7957;SDS011;4024;52.172;5.378;2023-03-01T10:24:40;6.40;;;4.50;;
7957;SDS011;4024;52.172;5.378;2023-03-01T10:27:12;4.43;;;3.97;;
7957;SDS011;4024;52.172;5.378;2023-03-01T10:29:56;8.03;;;4.60;;
7957;SDS011;4024;52.172;5.378;2023-03-01T10:32:32;6.27;;;4.40;;
7957;SDS011;4024;52.172;5.378;2023-03-01T10:34:58;6.17;;;4.97;;
7957;SDS011;4024;52.172;5.378;2023-03-01T10:37:23;6.73;;;4.70;;
7957;SDS011;4024;52.172;5.378;2023-03-01T10:39:56;8.97;;;5.80;;
7957;SDS011;4024;52.172;5.378;2023-03-01T10:42:27;7.87;;;5.73;;
7957;SDS011;4024;52.172;5.378;2023-03-01T10:44:56;11.53;;;7.70;;
7957;SDS011;4024;52.172;5.378;2023-03-01T10:47:26;8.83;;;6.83;;
7957;SDS011;4024;52.172;5.378;2023-03-01T10:52:21;6.10;;;4.83;;
7957;SDS011;4024;52.172;5.378;2023-03-01T10:55:23;6.40;;;4.40;;
7957;SDS011;4024;52.172;5.378;2023-03-01T10:58:15;6.53;;;4.20;;
7957;SDS011;4024;52.172;5.378;2023-03-01T11:00:52;6.27;;;3.87;;
7957;SDS011;4024;52.172;5.378;2023-03-01T11:03:22;4.67;;;3.83;;
7957;SDS011;4024;52.172;5.378;2023-03-01T11:13:34;6.20;;;4.57;;
7957;SDS011;4024;52.172;5.378;2023-03-01T11:16:06;5.77;;;4.77;;
7957;SDS011;4024;52.172;5.378;2023-03-01T11:18:35;5.60;;;4.20;;
7957;SDS011;4024;52.172;5.378;2023-03-01T11:21:00;6.97;;;4.47;;
7957;SDS011;4024;52.172;5.378;2023-03-01T11:23:28;4.87;;;3.87;;
7957;SDS011;4024;52.172;5.378;2023-03-01T11:25:56;5.27;;;3.90;;
7957;SDS011;4024;52.172;5.378;2023-03-01T11:28:28;5.47;;;3.97;;
7957;SDS011;4024;52.172;5.378;2023-03-01T11:31:05;5.70;;;4.40;;
7957;SDS011;4024;52.172;5.378;2023-03-01T11:38:57;4.60;;;4.00;;
7957;SDS011;4024;52.172;5.378;2023-03-01T11:41:31;4.37;;;3.57;;
7957;SDS011;4024;52.172;5.378;2023-03-01T11:44:10;5.47;;;3.37;;
7957;SDS011;4024;52.172;5.378;2023-03-01T11:46:46;4.60;;;3.50;;
7957;SDS011;4024;52.172;5.378;2023-03-01T11:52:32;4.50;;;3.40;;
7957;SDS011;4024;52.172;5.378;2023-03-01T11:55:24;4.40;;;3.50;;
7957;SDS011;4024;52.172;5.378;2023-03-01T11:58:19;4.73;;;3.60;;
7957;SDS011;4024;52.172;5.378;2023-03-01T12:07:09;5.00;;;4.00;;
7957;SDS011;4024;52.172;5.378;2023-03-01T12:15:39;5.20;;;3.83;;
7957;SDS011;4024;52.172;5.378;2023-03-01T12:18:20;5.13;;;4.43;;
7957;SDS011;4024;52.172;5.378;2023-03-01T12:20:58;5.70;;;4.17;;
7957;SDS011;4024;52.172;5.378;2023-03-01T12:25:55;5.00;;;4.10;;
7957;SDS011;4024;52.172;5.378;2023-03-01T12:28:39;6.00;;;4.33;;
7957;SDS011;4024;52.172;5.378;2023-03-01T12:45:16;5.53;;;4.40;;
7957;SDS011;4024;52.172;5.378;2023-03-01T12:48:58;7.77;;;4.80;;
7957;SDS011;4024;52.172;5.378;2023-03-01T12:50:54;5.83;;;4.87;;
7957;SDS011;4024;52.172;5.378;2023-03-01T12:53:26;5.60;;;4.47;;
7957;SDS011;4024;52.172;5.378;2023-03-01T12:55:55;5.30;;;4.47;;
7957;SDS011;4024;52.172;5.378;2023-03-01T12:59:09;5.93;;;4.33;;
7957;SDS011;4024;52.172;5.378;2023-03-01T13:01:49;5.27;;;4.43;;
7957;SDS011;4024;52.172;5.378;2023-03-01T13:04:46;5.73;;;4.57;;
7957;SDS011;4024;52.172;5.378;2023-03-01T13:07:30;5.37;;;3.93;;
7957;SDS011;4024;52.172;5.378;2023-03-01T13:15:33;4.70;;;4.30;;
7957;SDS011;4024;52.172;5.378;2023-03-01T13:18:02;6.73;;;4.23;;
7957;SDS011;4024;52.172;5.378;2023-03-01T13:20:30;6.00;;;4.00;;
7957;SDS011;4024;52.172;5.378;2023-03-01T13:36:13;5.97;;;4.50;;
7957;SDS011;4024;52.172;5.378;2023-03-01T13:41:52;5.30;;;4.13;;
7957;SDS011;4024;52.172;5.378;2023-03-01T13:47:13;5.60;;;4.63;;
7957;SDS011;4024;52.172;5.378;2023-03-01T13:49:43;7.33;;;4.60;;
7957;SDS011;4024;52.172;5.378;2023-03-01T14:03:23;5.60;;;4.70;;
7957;SDS011;4024;52.172;5.378;2023-03-01T14:05:59;6.47;;;4.87;;
7957;SDS011;4024;52.172;5.378;2023-03-01T14:08:27;6.53;;;4.63;;
7957;SDS011;4024;52.172;5.378;2023-03-01T14:11:41;5.70;;;4.43;;
7957;SDS011;4024;52.172;5.378;2023-03-01T14:19:16;6.70;;;4.50;;
7957;SDS011;4024;52.172;5.378;2023-03-01T14:21:56;5.60;;;4.37;;
7957;SDS011;4024;52.172;5.378;2023-03-01T14:24:46;7.03;;;4.67;;
7957;SDS011;4024;52.172;5.378;2023-03-01T14:27:14;5.10;;;4.40;;
7957;SDS011;4024;52.172;5.378;2023-03-01T14:29:40;6.70;;;4.60;;
7957;SDS011;4024;52.172;5.378;2023-03-01T14:32:19;5.57;;;4.67;;
7957;SDS011;4024;52.172;5.378;2023-03-01T14:34:47;5.93;;;4.80;;
7957;SDS011;4024;52.172;5.378;2023-03-01T14:37:19;8.60;;;5.33;;
7957;SDS011;4024;52.172;5.378;2023-03-01T14:39:45;7.03;;;4.93;;
7957;SDS011;4024;52.172;5.378;2023-03-01T14:42:11;5.23;;;4.50;;
7957;SDS011;4024;52.172;5.378;2023-03-01T14:44:40;5.10;;;4.13;;
7957;SDS011;4024;52.172;5.378;2023-03-01T14:47:11;7.93;;;4.73;;
7957;SDS011;4024;52.172;5.378;2023-03-01T14:49:40;6.27;;;4.57;;
7957;SDS011;4024;52.172;5.378;2023-03-01T14:52:07;5.53;;;4.80;;
7957;SDS011;4024;52.172;5.378;2023-03-01T14:54:46;7.67;;;4.93;;
7957;SDS011;4024;52.172;5.378;2023-03-01T14:57:24;6.67;;;4.50;;
7957;SDS011;4024;52.172;5.378;2023-03-01T14:59:52;6.20;;;4.93;;
7957;SDS011;4024;52.172;5.378;2023-03-01T15:02:21;6.33;;;4.80;;
7957;SDS011;4024;52.172;5.378;2023-03-01T15:04:51;6.73;;;4.73;;
7957;SDS011;4024;52.172;5.378;2023-03-01T15:07:21;5.23;;;4.33;;
7957;SDS011;4024;52.172;5.378;2023-03-01T15:09:51;8.03;;;6.40;;
7957;SDS011;4024;52.172;5.378;2023-03-01T15:15:18;5.87;;;4.73;;
7957;SDS011;4024;52.172;5.378;2023-03-01T15:17:48;4.97;;;3.90;;
7957;SDS011;4024;52.172;5.378;2023-03-01T15:20:18;4.97;;;4.20;;
7957;SDS011;4024;52.172;5.378;2023-03-01T15:22:46;5.77;;;4.43;;
7957;SDS011;4024;52.172;5.378;2023-03-01T15:25:16;6.60;;;4.57;;
7957;SDS011;4024;52.172;5.378;2023-03-01T15:27:45;6.83;;;4.70;;
7957;SDS011;4024;52.172;5.378;2023-03-01T15:30:17;5.40;;;4.50;;
7957;SDS011;4024;52.172;5.378;2023-03-01T15:35:52;5.30;;;4.60;;
7957;SDS011;4024;52.172;5.378;2023-03-01T15:38:24;6.20;;;4.60;;
7957;SDS011;4024;52.172;5.378;2023-03-01T15:40:55;5.77;;;4.77;;
7957;SDS011;4024;52.172;5.378;2023-03-01T15:48:50;6.93;;;4.60;;
7957;SDS011;4024;52.172;5.378;2023-03-01T15:51:26;5.60;;;4.47;;
7957;SDS011;4024;52.172;5.378;2023-03-01T15:53:55;5.17;;;4.43;;
7957;SDS011;4024;52.172;5.378;2023-03-01T15:56:23;5.40;;;4.90;;
7957;SDS011;4024;52.172;5.378;2023-03-01T15:58:48;5.90;;;4.97;;
7957;SDS011;4024;52.172;5.378;2023-03-01T16:01:14;8.33;;;5.40;;
7957;SDS011;4024;52.172;5.378;2023-03-01T16:03:44;7.10;;;5.03;;
7957;SDS011;4024;52.172;5.378;2023-03-01T16:06:10;5.77;;;4.80;;
7957;SDS011;4024;52.172;5.378;2023-03-01T16:08:37;8.33;;;5.20;;
7957;SDS011;4024;52.172;5.378;2023-03-01T16:11:04;7.30;;;5.10;;
7957;SDS011;4024;52.172;5.378;2023-03-01T16:13:31;6.87;;;5.37;;
7957;SDS011;4024;52.172;5.378;2023-03-01T16:15:57;5.63;;;4.63;;
7957;SDS011;4024;52.172;5.378;2023-03-01T16:18:23;6.90;;;5.33;;
7957;SDS011;4024;52.172;5.378;2023-03-01T16:20:49;5.30;;;4.73;;
7957;SDS011;4024;52.172;5.378;2023-03-01T16:23:15;5.17;;;4.60;;
7957;SDS011;4024;52.172;5.378;2023-03-01T16:25:40;11.53;;;5.40;;
7957;SDS011;4024;52.172;5.378;2023-03-01T16:28:06;7.60;;;5.90;;
7957;SDS011;4024;52.172;5.378;2023-03-01T16:30:35;9.63;;;5.70;;
7957;SDS011;4024;52.172;5.378;2023-03-01T16:33:04;6.77;;;5.30;;
7957;SDS011;4024;52.172;5.378;2023-03-01T16:35:32;6.00;;;5.00;;
7957;SDS011;4024;52.172;5.378;2023-03-01T16:37:59;8.50;;;5.50;;
7957;SDS011;4024;52.172;5.378;2023-03-01T16:40:26;6.90;;;5.77;;
7957;SDS011;4024;52.172;5.378;2023-03-01T16:42:53;7.47;;;5.63;;
7957;SDS011;4024;52.172;5.378;2023-03-01T16:45:25;7.70;;;4.90;;
7957;SDS011;4024;52.172;5.378;2023-03-01T16:47:52;6.87;;;5.63;;
7957;SDS011;4024;52.172;5.378;2023-03-01T16:50:18;9.20;;;5.80;;
7957;SDS011;4024;52.172;5.378;2023-03-01T16:52:43;7.57;;;5.67;;
7957;SDS011;4024;52.172;5.378;2023-03-01T16:55:10;6.50;;;5.80;;
7957;SDS011;4024;52.172;5.378;2023-03-01T16:57:36;5.40;;;4.90;;
7957;SDS011;4024;52.172;5.378;2023-03-01T17:00:04;5.43;;;4.67;;
7957;SDS011;4024;52.172;5.378;2023-03-01T17:02:32;8.63;;;5.23;;
7957;SDS011;4024;52.172;5.378;2023-03-01T17:05:02;7.43;;;5.37;;
7957;SDS011;4024;52.172;5.378;2023-03-01T17:07:31;6.23;;;5.13;;
7957;SDS011;4024;52.172;5.378;2023-03-01T17:09:58;7.23;;;5.67;;
7957;SDS011;4024;52.172;5.378;2023-03-01T17:12:24;9.67;;;8.33;;
7957;SDS011;4024;52.172;5.378;2023-03-01T17:14:50;7.40;;;6.37;;
7957;SDS011;4024;52.172;5.378;2023-03-01T17:17:16;8.73;;;6.00;;